Time;durP1;ratioP1;P1;durP2;ratioP2;P2;SDS_P1;SDS_P2;PMS_P1;PMS_P2;Temp;Humidity;BMP_temperature;BMP_pressure;BME280_temperature;BME280_humidity;BME280_pressure;Samples;Min_cycle;Max_cycle;Signal;HPM_P1;HPM_P2
2022/06/19 00:01:17;;;;;;;8.07;2.42;;;;;;;;;;4953608;28;20045;-71
2022/06/19 00:03:45;;;;;;;7.45;1.67;;;;;;;;;;4954096;28;20055;-70
2022/06/19 00:06:11;;;;;;;16.98;6.43;;;;;;;;;;4953640;28;20077;-71
2022/06/19 00:08:37;;;;;;;19.17;7.28;;;;;;;;;;4961898;28;20052;-70
2022/06/19 00:11:03;;;;;;;15.73;5.00;;;;;;;;;;4955010;28;20034;-71
2022/06/19 00:13:29;;;;;;;15.95;4.18;;;;;;;;;;4954569;28;20143;-69
2022/06/19 00:15:54;;;;;;;26.10;5.07;;;;;;;;;;4953129;28;20048;-69
2022/06/19 00:18:20;;;;;;;22.63;3.20;;;;;;;;;;4951827;28;20153;-68
2022/06/19 00:20:45;;;;;;;31.98;4.13;;;;;;;;;;4958445;28;20142;-68
2022/06/19 00:23:13;;;;;;;24.27;2.40;;;;;;;;;;4967459;28;20062;-71
2022/06/19 00:25:39;;;;;;;17.60;3.42;;;;;;;;;;4962910;28;20899;-69
2022/06/19 00:28:05;;;;;;;16.77;3.00;;;;;;;;;;4955118;28;20054;-69
2022/06/19 00:30:31;;;;;;;16.50;3.08;;;;;;;;;;4962259;28;20070;-70
2022/06/19 00:32:59;;;;;;;10.27;2.28;;;;;;;;;;4951797;28;21095;-70
2022/06/19 00:35:26;;;;;;;14.10;3.13;;;;;;;;;;4953565;28;20137;-69
2022/06/19 00:37:54;;;;;;;16.42;2.95;;;;;;;;;;4967940;28;20822;-70
2022/06/19 00:40:20;;;;;;;15.52;2.58;;;;;;;;;;4955160;28;20770;-70
2022/06/19 00:42:48;;;;;;;11.90;2.20;;;;;;;;;;4953705;28;20753;-70
2022/06/19 00:45:30;;;;;;;9.50;2.10;;;;;;;;;;4972293;28;20717;-70
2022/06/19 00:47:55;;;;;;;15.90;2.65;;;;;;;;;;4973143;28;20061;-71
2022/06/19 00:50:31;;;;;;;17.02;2.35;;;;;;;;;;4953217;28;20033;-68
2022/06/19 00:52:56;;;;;;;10.57;2.10;;;;;;;;;;4953113;28;20034;-68
2022/06/19 00:55:27;;;;;;;15.88;2.60;;;;;;;;;;4953655;28;20058;-69
2022/06/19 00:57:57;;;;;;;13.10;2.33;;;;;;;;;;4953012;28;20111;-68
2022/06/19 01:00:26;;;;;;;17.17;2.50;;;;;;;;;;4953418;28;20861;-70
2022/06/19 01:02:53;;;;;;;17.63;2.78;;;;;;;;;;4967321;28;20753;-69
2022/06/19 01:05:18;;;;;;;18.27;2.72;;;;;;;;;;4952734;28;20352;-71
2022/06/19 01:07:44;;;;;;;23.10;2.88;;;;;;;;;;4951561;28;20049;-68
2022/06/19 01:10:12;;;;;;;24.33;3.25;;;;;;;;;;4951995;28;20037;-72
2022/06/19 01:12:38;;;;;;;19.20;3.08;;;;;;;;;;4955645;28;20080;-69
2022/06/19 01:15:08;;;;;;;15.02;2.45;;;;;;;;;;4952338;28;20078;-69
2022/06/19 01:17:34;;;;;;;19.40;2.95;;;;;;;;;;4952620;28;20034;-70
2022/06/19 01:20:00;;;;;;;18.90;3.25;;;;;;;;;;4965235;28;20053;-68
2022/06/19 01:22:55;;;;;;;12.52;2.20;;;;;;;;;;4953012;28;20779;-70
2022/06/19 01:25:29;;;;;;;13.75;2.15;;;;;;;;;;4952283;28;20506;-69
2022/06/19 01:30:41;;;;;;;15.75;2.90;;;;;;;;;;4969842;28;20901;-71
2022/06/19 01:33:10;;;;;;;12.60;2.50;;;;;;;;;;4975395;28;21265;-69
2022/06/19 01:35:36;;;;;;;15.70;2.42;;;;;;;;;;4962882;28;20045;-71
2022/06/19 01:38:04;;;;;;;14.25;1.90;;;;;;;;;;4958224;28;20779;-70
2022/06/19 01:40:31;;;;;;;14.07;2.25;;;;;;;;;;4949461;28;20042;-70
2022/06/19 01:42:56;;;;;;;12.48;2.00;;;;;;;;;;4955677;28;20031;-72
2022/06/19 01:45:22;;;;;;;13.95;2.65;;;;;;;;;;4953337;28;20069;-68
2022/06/19 01:47:50;;;;;;;17.35;2.22;;;;;;;;;;4964391;28;20034;-71
2022/06/19 01:50:21;;;;;;;7.82;1.92;;;;;;;;;;4949905;28;20034;-70
2022/06/19 01:52:50;;;;;;;12.13;1.92;;;;;;;;;;4950487;28;20033;-71
2022/06/19 01:55:17;;;;;;;12.80;1.90;;;;;;;;;;4951164;28;20038;-71
2022/06/19 01:57:50;;;;;;;13.85;2.40;;;;;;;;;;4951576;28;20130;-70
2022/06/19 02:00:20;;;;;;;14.48;2.30;;;;;;;;;;4965642;28;20042;-69
2022/06/19 02:02:47;;;;;;;11.75;1.80;;;;;;;;;;4949874;28;20072;-70
2022/06/19 02:05:15;;;;;;;12.88;2.10;;;;;;;;;;4947733;28;20413;-70
2022/06/19 02:07:40;;;;;;;12.63;1.98;;;;;;;;;;4950845;28;20105;-69
2022/06/19 02:10:06;;;;;;;11.10;2.08;;;;;;;;;;4955889;28;20038;-70
2022/06/19 02:12:32;;;;;;;15.35;2.85;;;;;;;;;;4949810;28;20041;-70
2022/06/19 02:14:59;;;;;;;14.38;2.40;;;;;;;;;;4954840;28;20038;-71
2022/06/19 02:17:33;;;;;;;14.48;2.35;;;;;;;;;;4951279;28;20140;-70
2022/06/19 02:19:59;;;;;;;12.85;2.38;;;;;;;;;;4950460;28;21139;-70
2022/06/19 02:22:24;;;;;;;10.23;1.75;;;;;;;;;;4949711;28;20056;-71
2022/06/19 02:24:50;;;;;;;12.23;1.92;;;;;;;;;;4950529;28;20562;-71
2022/06/19 02:27:15;;;;;;;15.23;2.08;;;;;;;;;;4951527;28;20046;-71
2022/06/19 02:29:41;;;;;;;24.58;3.80;;;;;;;;;;4950960;28;20403;-71
2022/06/19 02:32:18;;;;;;;29.50;5.10;;;;;;;;;;4950053;28;20038;-72
2022/06/19 02:34:44;;;;;;;26.88;5.38;;;;;;;;;;4984840;28;20049;-71
2022/06/19 02:37:24;;;;;;;20.60;2.92;;;;;;;;;;4971532;28;20439;-70
2022/06/19 02:40:05;;;;;;;20.50;2.45;;;;;;;;;;4970812;28;21050;-70
2022/06/19 02:42:30;;;;;;;13.75;2.53;;;;;;;;;;4970168;28;20604;-70
2022/06/19 02:44:57;;;;;;;13.45;2.92;;;;;;;;;;4971556;28;20044;-70
2022/06/19 02:47:24;;;;;;;14.65;2.92;;;;;;;;;;4971305;28;20104;-69
2022/06/19 02:49:49;;;;;;;17.60;2.90;;;;;;;;;;4970097;28;20049;-69
2022/06/19 02:52:15;;;;;;;17.08;2.80;;;;;;;;;;4969774;28;20034;-69
2022/06/19 02:54:40;;;;;;;15.70;3.10;;;;;;;;;;4971809;28;20050;-69
2022/06/19 02:57:07;;;;;;;22.17;3.55;;;;;;;;;;4972569;28;20042;-69
2022/06/19 02:59:35;;;;;;;24.10;3.17;;;;;;;;;;4971125;28;20129;-69
2022/06/19 03:02:00;;;;;;;18.08;3.63;;;;;;;;;;4972629;28;20037;-70
2022/06/19 03:04:33;;;;;;;13.02;2.90;;;;;;;;;;4970010;28;20048;-71
2022/06/19 03:06:59;;;;;;;20.67;3.55;;;;;;;;;;4971007;28;20048;-70
2022/06/19 03:09:24;;;;;;;16.55;2.88;;;;;;;;;;4971987;28;21135;-72
2022/06/19 03:11:50;;;;;;;19.92;3.35;;;;;;;;;;4970439;28;20048;-71
2022/06/19 03:14:15;;;;;;;16.65;2.53;;;;;;;;;;4985846;28;20168;-72
2022/06/19 03:16:44;;;;;;;23.08;3.30;;;;;;;;;;4985812;28;20122;-72
2022/06/19 03:19:09;;;;;;;20.73;3.08;;;;;;;;;;4972518;28;20038;-73
2022/06/19 03:21:37;;;;;;;19.75;3.45;;;;;;;;;;4966151;28;20045;-73
2022/06/19 03:24:02;;;;;;;18.83;3.00;;;;;;;;;;4970482;28;20049;-73
2022/06/19 03:26:27;;;;;;;18.92;3.28;;;;;;;;;;4979203;28;20034;-72
2022/06/19 03:28:53;;;;;;;15.05;2.80;;;;;;;;;;4985432;28;20041;-72
2022/06/19 03:31:21;;;;;;;16.48;2.97;;;;;;;;;;4976472;28;20061;-73
2022/06/19 03:33:46;;;;;;;14.40;3.63;;;;;;;;;;4970444;28;20603;-74
2022/06/19 03:36:14;;;;;;;18.77;2.60;;;;;;;;;;4985168;28;20034;-72
2022/06/19 03:38:39;;;;;;;14.70;2.58;;;;;;;;;;4970924;28;21125;-73
2022/06/19 03:41:04;;;;;;;23.70;4.22;;;;;;;;;;4978840;28;20041;-73
2022/06/19 03:43:30;;;;;;;23.70;2.92;;;;;;;;;;4976528;28;20136;-74
2022/06/19 03:45:59;;;;;;;23.55;3.17;;;;;;;;;;4986237;28;21051;-75
2022/06/19 03:48:26;;;;;;;23.38;3.47;;;;;;;;;;4971993;28;20120;-74
2022/06/19 03:50:52;;;;;;;19.17;3.25;;;;;;;;;;4976600;28;20577;-75
2022/06/19 03:53:18;;;;;;;23.65;3.33;;;;;;;;;;4968904;28;20038;-76
2022/06/19 03:55:45;;;;;;;19.02;3.08;;;;;;;;;;4952086;28;20057;-74
2022/06/19 03:58:11;;;;;;;18.48;4.00;;;;;;;;;;4951804;28;20045;-75
2022/06/19 04:00:36;;;;;;;19.48;3.47;;;;;;;;;;4952993;28;20145;-74
2022/06/19 04:03:02;;;;;;;21.90;3.05;;;;;;;;;;4955946;28;20057;-75
2022/06/19 04:05:27;;;;;;;17.67;3.15;;;;;;;;;;4958999;28;20180;-75
2022/06/19 04:07:52;;;;;;;21.63;3.53;;;;;;;;;;4955468;28;20912;-75
2022/06/19 04:10:19;;;;;;;20.30;3.45;;;;;;;;;;4964161;28;20031;-76
2022/06/19 04:12:45;;;;;;;24.83;3.25;;;;;;;;;;4954566;28;20070;-75
2022/06/19 04:15:11;;;;;;;18.45;3.25;;;;;;;;;;4963154;28;20040;-75
2022/06/19 04:17:37;;;;;;;22.98;3.25;;;;;;;;;;4954440;28;20038;-76
2022/06/19 04:20:07;;;;;;;19.27;3.10;;;;;;;;;;4954634;28;20069;-76
2022/06/19 04:22:32;;;;;;;26.50;3.35;;;;;;;;;;4955061;28;20069;-75
2022/06/19 04:24:57;;;;;;;19.95;3.63;;;;;;;;;;4954573;28;20047;-74
2022/06/19 04:27:25;;;;;;;23.27;3.80;;;;;;;;;;4955130;28;20030;-74
2022/06/19 04:29:51;;;;;;;16.63;3.08;;;;;;;;;;4954684;28;20112;-74
2022/06/19 04:32:16;;;;;;;20.67;3.53;;;;;;;;;;4955298;28;20870;-73
2022/06/19 04:34:42;;;;;;;22.52;3.28;;;;;;;;;;4954124;28;20100;-74
2022/06/19 04:37:07;;;;;;;22.02;3.83;;;;;;;;;;4954667;28;20049;-74
2022/06/19 04:39:35;;;;;;;18.83;3.80;;;;;;;;;;4959925;28;20948;-73
2022/06/19 04:42:00;;;;;;;22.08;3.75;;;;;;;;;;4953856;28;20038;-75
2022/06/19 04:44:26;;;;;;;17.45;3.10;;;;;;;;;;4955696;28;21264;-75
2022/06/19 04:46:51;;;;;;;20.35;3.83;;;;;;;;;;4954986;28;20037;-75
2022/06/19 04:49:17;;;;;;;27.55;3.72;;;;;;;;;;4969673;28;20030;-75
2022/06/19 04:51:44;;;;;;;22.42;3.72;;;;;;;;;;4959044;28;20035;-76
2022/06/19 04:54:12;;;;;;;20.98;3.58;;;;;;;;;;4955553;28;20598;-76
2022/06/19 04:56:40;;;;;;;19.73;3.95;;;;;;;;;;4954263;28;20030;-79
2022/06/19 04:59:08;;;;;;;26.27;4.13;;;;;;;;;;4957502;28;20041;-76
2022/06/19 05:01:35;;;;;;;18.73;3.92;;;;;;;;;;4953796;28;20045;-75
2022/06/19 05:04:01;;;;;;;23.17;3.90;;;;;;;;;;4954947;28;20734;-76
2022/06/19 05:06:27;;;;;;;23.98;4.43;;;;;;;;;;4969794;28;20052;-77
2022/06/19 05:08:57;;;;;;;19.40;4.40;;;;;;;;;;4979375;28;20080;-77
2022/06/19 05:11:23;;;;;;;30.10;4.38;;;;;;;;;;4979366;28;20049;-76
2022/06/19 05:13:51;;;;;;;30.60;4.43;;;;;;;;;;4956830;28;20101;-76
2022/06/19 05:16:18;;;;;;;19.92;3.97;;;;;;;;;;4955757;28;20105;-76
2022/06/19 05:18:43;;;;;;;28.17;4.00;;;;;;;;;;4958235;28;20054;-78
2022/06/19 05:21:10;;;;;;;26.23;3.63;;;;;;;;;;4977173;28;20037;-77
2022/06/19 05:23:36;;;;;;;28.35;3.25;;;;;;;;;;4978608;28;20106;-77
2022/06/19 05:26:07;;;;;;;26.58;3.75;;;;;;;;;;4982649;28;20034;-77
2022/06/19 05:28:33;;;;;;;22.27;3.38;;;;;;;;;;4974911;28;20033;-78
2022/06/19 05:30:59;;;;;;;22.23;3.22;;;;;;;;;;4974595;28;20061;-77
2022/06/19 05:33:27;;;;;;;22.80;3.10;;;;;;;;;;4982002;28;20030;-72
2022/06/19 05:35:53;;;;;;;25.63;3.67;;;;;;;;;;4973475;28;24903;-69
2022/06/19 05:38:19;;;;;;;21.52;3.10;;;;;;;;;;4972830;28;20045;-69
2022/06/19 05:40:51;;;;;;;14.77;2.90;;;;;;;;;;4962598;28;20171;-70
2022/06/19 05:43:17;;;;;;;23.73;3.47;;;;;;;;;;4948153;28;20038;-71
2022/06/19 05:45:50;;;;;;;18.73;3.45;;;;;;;;;;4952410;28;20041;-75
2022/06/19 05:48:16;;;;;;;21.15;3.70;;;;;;;;;;4952958;28;20046;-73
2022/06/19 05:50:41;;;;;;;27.23;3.58;;;;;;;;;;4941155;28;20033;-72
2022/06/19 05:53:07;;;;;;;20.92;3.60;;;;;;;;;;4964664;28;20077;-71
2022/06/19 05:55:32;;;;;;;15.35;3.00;;;;;;;;;;4950963;28;20110;-71
2022/06/19 05:57:59;;;;;;;24.10;4.18;;;;;;;;;;4951325;28;20041;-72
2022/06/19 06:00:27;;;;;;;23.63;3.10;;;;;;;;;;4948651;28;20048;-71
2022/06/19 06:02:52;;;;;;;20.63;3.78;;;;;;;;;;4950908;28;20133;-71
2022/06/19 06:05:17;;;;;;;28.08;4.57;;;;;;;;;;4949345;28;20145;-71
2022/06/19 06:07:43;;;;;;;19.77;3.22;;;;;;;;;;4951445;28;21714;-70
2022/06/19 06:10:10;;;;;;;20.17;3.45;;;;;;;;;;4963803;28;22230;-73
2022/06/19 06:12:35;;;;;;;23.52;3.78;;;;;;;;;;4955640;28;20156;-71
2022/06/19 06:15:00;;;;;;;22.52;3.60;;;;;;;;;;4953076;28;20042;-72
2022/06/19 06:17:28;;;;;;;22.00;3.65;;;;;;;;;;4954892;28;20030;-71
2022/06/19 06:19:55;;;;;;;17.52;3.63;;;;;;;;;;4949664;28;20080;-71
2022/06/19 06:22:21;;;;;;;19.33;3.03;;;;;;;;;;4949839;28;20885;-70
2022/06/19 06:24:49;;;;;;;18.45;3.25;;;;;;;;;;4955317;28;20117;-74
2022/06/19 06:27:14;;;;;;;18.73;3.22;;;;;;;;;;4950374;28;20038;-72
2022/06/19 06:29:41;;;;;;;22.95;3.60;;;;;;;;;;4951051;28;20046;-75
2022/06/19 06:32:07;;;;;;;17.98;3.33;;;;;;;;;;4952000;28;20132;-72
2022/06/19 06:34:32;;;;;;;20.88;3.60;;;;;;;;;;4950303;28;20053;-72
2022/06/19 06:36:57;;;;;;;21.35;3.05;;;;;;;;;;4947240;28;20050;-72
2022/06/19 06:39:23;;;;;;;23.70;3.83;;;;;;;;;;4963587;28;20129;-74
2022/06/19 06:41:51;;;;;;;20.00;3.72;;;;;;;;;;4949128;28;20045;-71
2022/06/19 06:44:17;;;;;;;16.63;3.28;;;;;;;;;;4971251;28;20092;-73
2022/06/19 06:46:42;;;;;;;17.35;2.97;;;;;;;;;;4971483;28;20108;-72
2022/06/19 06:49:08;;;;;;;24.05;3.00;;;;;;;;;;4966056;28;20115;-74
2022/06/19 06:51:33;;;;;;;24.33;3.53;;;;;;;;;;4967186;28;20543;-73
2022/06/19 06:53:59;;;;;;;18.92;3.03;;;;;;;;;;4967854;28;20200;-72
2022/06/19 06:56:34;;;;;;;20.65;3.33;;;;;;;;;;4966400;28;20049;-74
2022/06/19 06:58:59;;;;;;;16.52;2.75;;;;;;;;;;4967368;28;20164;-72
2022/06/19 07:01:25;;;;;;;19.48;3.53;;;;;;;;;;4955899;28;20344;-73
2022/06/19 07:03:59;;;;;;;18.65;3.40;;;;;;;;;;4967174;28;20164;-72
2022/06/19 07:06:25;;;;;;;18.10;3.22;;;;;;;;;;4980699;28;20133;-73
2022/06/19 07:08:51;;;;;;;17.80;2.78;;;;;;;;;;4968748;28;20158;-72
2022/06/19 07:11:17;;;;;;;13.90;2.42;;;;;;;;;;4975765;28;20045;-72
2022/06/19 07:13:43;;;;;;;20.48;3.50;;;;;;;;;;4954035;28;21177;-72
2022/06/19 07:16:08;;;;;;;17.83;3.03;;;;;;;;;;4949252;28;20064;-71
2022/06/19 07:18:36;;;;;;;19.90;3.05;;;;;;;;;;4963209;28;20038;-72
2022/06/19 07:21:02;;;;;;;11.23;2.78;;;;;;;;;;4965444;28;20034;-72
2022/06/19 07:23:27;;;;;;;15.07;3.40;;;;;;;;;;4959957;28;20042;-72
2022/06/19 07:25:53;;;;;;;17.58;2.67;;;;;;;;;;4951720;28;20084;-72
2022/06/19 07:28:18;;;;;;;17.35;3.42;;;;;;;;;;4958456;28;23605;-73
2022/06/19 07:30:46;;;;;;;18.60;2.92;;;;;;;;;;4950974;28;20839;-72
2022/06/19 07:33:12;;;;;;;19.27;3.45;;;;;;;;;;4949840;28;20026;-72
2022/06/19 07:35:39;;;;;;;18.63;2.88;;;;;;;;;;4955696;28;20030;-72
2022/06/19 07:38:05;;;;;;;15.52;2.78;;;;;;;;;;4952074;28;20080;-72
2022/06/19 07:40:30;;;;;;;13.25;2.63;;;;;;;;;;4957885;28;20046;-71
2022/06/19 07:42:58;;;;;;;9.48;2.63;;;;;;;;;;4963267;28;20037;-72
2022/06/19 07:45:23;;;;;;;11.52;2.40;;;;;;;;;;4955366;28;20072;-73
2022/06/19 07:50:35;;;;;;;16.27;3.40;;;;;;;;;;4982236;28;20044;-72
2022/06/19 07:53:00;;;;;;;13.80;2.42;;;;;;;;;;4958812;28;20096;-73
2022/06/19 07:55:30;;;;;;;13.75;2.38;;;;;;;;;;4954911;28;20038;-72
2022/06/19 07:58:00;;;;;;;13.70;2.50;;;;;;;;;;4955085;28;20045;-73
2022/06/19 08:00:29;;;;;;;12.15;2.20;;;;;;;;;;4954360;28;20056;-72
2022/06/19 08:02:57;;;;;;;10.38;2.53;;;;;;;;;;4959452;28;20117;-72
2022/06/19 08:05:27;;;;;;;12.13;2.03;;;;;;;;;;4958972;28;20219;-73
2022/06/19 08:07:57;;;;;;;15.00;1.98;;;;;;;;;;4954668;28;20038;-73
2022/06/19 08:10:24;;;;;;;;;;;;;;;;;;4956016;28;20190;-74
2022/06/19 08:12:50;;;;;;;4.88;1.33;;;;;;;;;;4954484;28;19963;-74
2022/06/19 08:15:16;;;;;;;9.20;1.48;;;;;;;;;;4953223;28;20034;-73
2022/06/19 08:17:41;;;;;;;10.15;1.88;;;;;;;;;;4958802;28;20035;-75
2022/06/19 08:20:07;;;;;;;8.85;2.00;;;;;;;;;;4953216;28;20845;-73
2022/06/19 08:22:33;;;;;;;10.93;1.67;;;;;;;;;;4959414;28;20048;-74
2022/06/19 08:24:58;;;;;;;10.93;1.80;;;;;;;;;;4953596;28;20588;-73
2022/06/19 08:27:24;;;;;;;9.10;1.75;;;;;;;;;;4954589;28;20042;-74
2022/06/19 08:29:49;;;;;;;8.55;1.55;;;;;;;;;;4946040;28;20107;-74
2022/06/19 08:32:15;;;;;;;9.55;1.73;;;;;;;;;;4950647;28;21264;-74
2022/06/19 08:34:40;;;;;;;5.45;1.55;;;;;;;;;;4954168;28;20035;-74
2022/06/19 08:37:10;;;;;;;9.05;1.67;;;;;;;;;;4954338;28;20050;-75
2022/06/19 08:39:36;;;;;;;11.15;1.75;;;;;;;;;;4954040;28;20061;-74
2022/06/19 08:42:16;;;;;;;6.15;1.38;;;;;;;;;;4957370;28;20045;-75
2022/06/19 08:44:47;;;;;;;8.23;1.80;;;;;;;;;;4953659;28;20060;-74
2022/06/19 08:47:25;;;;;;;3.25;1.27;;;;;;;;;;4953960;28;20039;-74
2022/06/19 08:49:57;;;;;;;8.35;2.78;;;;;;;;;;4952699;28;20159;-73
2022/06/19 08:52:38;;;;;;;5.32;1.73;;;;;;;;;;4953233;28;21248;-75
2022/06/19 08:55:22;;;;;;;7.88;1.73;;;;;;;;;;4946332;28;20042;-73
2022/06/19 08:57:47;;;;;;;6.65;1.60;;;;;;;;;;4972904;28;20034;-73
2022/06/19 09:00:16;;;;;;;7.43;2.03;;;;;;;;;;4972597;28;20099;-74
2022/06/19 09:02:45;;;;;;;8.02;2.35;;;;;;;;;;4973161;28;20156;-74
2022/06/19 09:05:44;;;;;;;8.00;2.85;;;;;;;;;;4971930;28;20114;-72
2022/06/19 09:08:22;;;;;;;11.20;3.65;;;;;;;;;;4971026;28;20924;-73
2022/06/19 09:10:49;;;;;;;8.65;4.00;;;;;;;;;;4972774;28;20029;-74
2022/06/19 09:13:33;;;;;;;9.25;3.35;;;;;;;;;;4965550;28;20179;-76
2022/06/19 09:16:12;;;;;;;8.73;2.15;;;;;;;;;;4953398;28;20151;-73
2022/06/19 09:18:59;;;;;;;4.22;1.15;;;;;;;;;;4953910;28;20039;-73
2022/06/19 09:21:24;;;;;;;7.72;1.60;;;;;;;;;;4953714;28;22259;-72
2022/06/19 09:24:08;;;;;;;5.22;1.33;;;;;;;;;;4952338;28;20058;-75
2022/06/19 09:26:36;;;;;;;4.85;1.40;;;;;;;;;;4972329;28;20160;-75
2022/06/19 09:29:11;;;;;;;7.70;1.60;;;;;;;;;;4985708;28;20103;-75
2022/06/19 09:31:42;;;;;;;7.78;2.40;;;;;;;;;;4972428;28;20040;-73
2022/06/19 09:34:12;;;;;;;5.20;1.80;;;;;;;;;;4970846;28;20034;-74
2022/06/19 09:36:43;;;;;;;6.85;1.48;;;;;;;;;;4980300;28;20169;-73
2022/06/19 09:39:23;;;;;;;8.50;2.10;;;;;;;;;;4971612;28;20667;-73
2022/06/19 09:41:56;;;;;;;11.38;2.30;;;;;;;;;;4970250;28;20163;-71
2022/06/19 09:44:44;;;;;;;8.80;3.42;;;;;;;;;;4985140;28;20060;-71
2022/06/19 09:47:10;;;;;;;10.57;2.40;;;;;;;;;;4971215;28;20045;-73
2022/06/19 09:49:35;;;;;;;9.90;2.10;;;;;;;;;;4985438;28;20063;-72
2022/06/19 09:52:05;;;;;;;7.82;1.98;;;;;;;;;;4971669;28;20068;-74
2022/06/19 09:55:05;;;;;;;10.38;2.30;;;;;;;;;;4972009;28;20908;-73
2022/06/19 09:57:34;;;;;;;10.35;1.98;;;;;;;;;;4917899;28;20038;-72
2022/06/19 10:00:03;;;;;;;9.82;2.53;;;;;;;;;;4945549;28;20043;-74
2022/06/19 10:02:36;;;;;;;10.10;2.13;;;;;;;;;;4951976;28;20038;-74
2022/06/19 10:05:05;;;;;;;9.00;1.80;;;;;;;;;;4951928;28;20030;-75
2022/06/19 10:07:37;;;;;;;9.70;2.00;;;;;;;;;;4948255;28;20034;-73
2022/06/19 10:10:09;;;;;;;6.65;1.63;;;;;;;;;;4948854;28;20042;-73
2022/06/19 10:12:38;;;;;;;11.38;1.90;;;;;;;;;;4980972;28;20048;-75
2022/06/19 10:15:07;;;;;;;8.68;2.00;;;;;;;;;;4947179;28;20181;-75
2022/06/19 10:17:44;;;;;;;8.70;2.20;;;;;;;;;;4946016;28;20573;-78
2022/06/19 10:20:16;;;;;;;8.75;1.83;;;;;;;;;;4945521;28;20578;-73
2022/06/19 10:22:45;;;;;;;9.50;1.92;;;;;;;;;;4953181;28;20034;-72
2022/06/19 10:25:22;;;;;;;10.52;1.95;;;;;;;;;;4947462;28;20133;-73
2022/06/19 10:27:52;;;;;;;11.20;2.50;;;;;;;;;;4947769;28;21052;-73
2022/06/19 10:30:35;;;;;;;10.65;2.40;;;;;;;;;;4946493;28;20140;-73
2022/06/19 10:33:06;;;;;;;9.18;2.10;;;;;;;;;;4948585;28;20042;-75
2022/06/19 10:35:35;;;;;;;8.40;1.90;;;;;;;;;;4947981;28;20058;-75
2022/06/19 10:38:12;;;;;;;10.93;2.20;;;;;;;;;;4948061;28;20048;-74
2022/06/19 10:40:47;;;;;;;9.95;2.38;;;;;;;;;;4946545;28;20053;-74
2022/06/19 10:43:27;;;;;;;8.05;1.75;;;;;;;;;;4948424;28;20131;-74
2022/06/19 10:45:56;;;;;;;8.63;1.95;;;;;;;;;;4946731;28;20041;-73
2022/06/19 10:48:30;;;;;;;7.53;2.30;;;;;;;;;;4945721;28;20137;-72
2022/06/19 10:51:14;;;;;;;12.20;2.10;;;;;;;;;;4945207;28;20485;-72
2022/06/19 10:53:42;;;;;;;9.93;2.05;;;;;;;;;;4945418;28;20038;-73
2022/06/19 10:56:28;;;;;;;10.18;2.60;;;;;;;;;;4945255;28;20057;-72
2022/06/19 10:58:54;;;;;;;11.27;2.10;;;;;;;;;;4965239;28;20801;-73
2022/06/19 11:04:12;;;;;;;10.85;2.33;;;;;;;;;;4965548;28;20674;-74
2022/06/19 11:06:51;;;;;;;10.50;2.22;;;;;;;;;;4957424;28;20112;-74
2022/06/19 11:09:37;;;;;;;10.40;2.20;;;;;;;;;;4965248;28;20486;-73
2022/06/19 11:12:29;;;;;;;9.93;2.13;;;;;;;;;;4965686;28;20037;-73
2022/06/19 11:14:58;;;;;;;9.68;1.95;;;;;;;;;;4964239;28;20308;-72
2022/06/19 11:17:37;;;;;;;10.63;2.63;;;;;;;;;;4964673;28;20042;-74
2022/06/19 11:20:17;;;;;;;10.88;2.60;;;;;;;;;;4963778;28;20052;-75
2022/06/19 11:22:44;;;;;;;11.07;1.98;;;;;;;;;;4979451;28;20038;-76
2022/06/19 11:25:18;;;;;;;9.48;2.10;;;;;;;;;;4964834;28;20037;-75
2022/06/19 11:27:55;;;;;;;10.82;2.38;;;;;;;;;;4964621;28;20038;-72
2022/06/19 11:30:27;;;;;;;10.90;1.70;;;;;;;;;;4964267;28;20030;-75
2022/06/19 11:32:53;;;;;;;11.50;2.15;;;;;;;;;;4956903;28;20048;-75
2022/06/19 11:35:18;;;;;;;8.95;2.00;;;;;;;;;;4969595;28;20034;-73
2022/06/19 11:37:51;;;;;;;11.20;2.38;;;;;;;;;;4964069;28;20581;-72
2022/06/19 11:40:26;;;;;;;12.02;2.38;;;;;;;;;;4968607;28;20049;-80
2022/06/19 11:42:53;;;;;;;10.23;1.95;;;;;;;;;;4969198;28;20456;-74
2022/06/19 11:45:18;;;;;;;7.80;1.98;;;;;;;;;;4977039;28;20045;-74
2022/06/19 11:48:00;;;;;;;12.43;2.13;;;;;;;;;;4964753;28;20413;-77
2022/06/19 11:50:25;;;;;;;10.35;2.05;;;;;;;;;;4964671;28;20421;-74
2022/06/19 11:52:50;;;;;;;10.18;1.90;;;;;;;;;;4962897;28;20135;-75
2022/06/19 11:55:29;;;;;;;12.70;2.47;;;;;;;;;;4964932;28;20700;-75
2022/06/19 11:57:59;;;;;;;11.88;2.25;;;;;;;;;;4946352;28;20046;-74
2022/06/19 12:00:29;;;;;;;9.35;1.70;;;;;;;;;;4946261;28;20893;-75
2022/06/19 12:02:58;;;;;;;8.70;2.30;;;;;;;;;;4945706;28;20161;-74
2022/06/19 12:05:26;;;;;;;9.88;1.95;;;;;;;;;;4944737;28;20660;-75
2022/06/19 12:07:51;;;;;;;10.35;2.63;;;;;;;;;;4945203;28;20038;-73
2022/06/19 12:10:24;;;;;;;10.52;2.13;;;;;;;;;;4945519;28;20058;-73
2022/06/19 12:12:54;;;;;;;11.40;2.20;;;;;;;;;;4945975;28;20169;-72
2022/06/19 12:15:22;;;;;;;10.88;2.55;;;;;;;;;;4945879;28;20045;-73
2022/06/19 12:17:54;;;;;;;10.50;2.20;;;;;;;;;;4945629;28;20537;-74
2022/06/19 12:20:23;;;;;;;9.75;2.28;;;;;;;;;;4946015;28;20985;-73
2022/06/19 12:22:48;;;;;;;8.88;1.77;;;;;;;;;;4950503;28;20089;-75
2022/06/19 12:25:26;;;;;;;10.05;1.92;;;;;;;;;;4947089;28;20508;-73
2022/06/19 12:28:11;;;;;;;10.07;2.13;;;;;;;;;;4948316;28;20770;-75
2022/06/19 12:30:42;;;;;;;10.27;2.45;;;;;;;;;;4951245;28;20030;-72
2022/06/19 12:33:12;;;;;;;10.15;2.47;;;;;;;;;;4946637;28;20065;-74
2022/06/19 12:35:41;;;;;;;8.63;2.28;;;;;;;;;;4948695;28;20166;-73
2022/06/19 12:38:13;;;;;;;9.82;2.20;;;;;;;;;;4946163;28;20124;-71
2022/06/19 12:40:47;;;;;;;10.55;2.38;;;;;;;;;;4947348;28;20750;-73
2022/06/19 12:43:16;;;;;;;11.05;2.42;;;;;;;;;;4953499;28;20031;-69
2022/06/19 12:45:54;;;;;;;8.38;2.03;;;;;;;;;;4952681;28;20038;-72
2022/06/19 12:48:28;;;;;;;8.77;1.73;;;;;;;;;;4951470;28;20031;-71
2022/06/19 12:50:57;;;;;;;10.63;2.20;;;;;;;;;;4952619;28;20034;-71
2022/06/19 12:53:25;;;;;;;9.38;2.08;;;;;;;;;;4966067;28;20030;-72
2022/06/19 12:56:00;;;;;;;10.05;2.00;;;;;;;;;;4950916;28;20047;-73
2022/06/19 12:58:34;;;;;;;12.18;2.70;;;;;;;;;;4951272;28;21073;-75
2022/06/19 13:01:19;;;;;;;13.10;2.92;;;;;;;;;;4950650;28;20042;-77
2022/06/19 13:03:54;;;;;;;9.88;1.90;;;;;;;;;;4965726;28;20069;-73
2022/06/19 13:06:20;;;;;;;9.73;1.92;;;;;;;;;;4952357;28;20483;-75
2022/06/19 13:09:04;;;;;;;12.85;2.33;;;;;;;;;;4949550;28;20042;-73
2022/06/19 13:11:44;;;;;;;9.38;2.05;;;;;;;;;;4969183;28;21281;-71
2022/06/19 13:14:13;;;;;;;12.18;2.45;;;;;;;;;;4969329;28;20034;-77
2022/06/19 13:16:42;;;;;;;10.95;2.35;;;;;;;;;;4969072;28;22555;-74
2022/06/19 13:19:22;;;;;;;10.00;2.28;;;;;;;;;;4968454;28;22739;-70
2022/06/19 13:22:06;;;;;;;7.38;2.10;;;;;;;;;;4970347;28;20084;-71
2022/06/19 13:24:43;;;;;;;12.48;2.22;;;;;;;;;;4971655;28;20029;-70
2022/06/19 13:27:27;;;;;;;9.77;2.25;;;;;;;;;;4985077;28;20078;-72
2022/06/19 13:29:55;;;;;;;13.10;2.33;;;;;;;;;;4971477;28;20136;-75
2022/06/19 13:32:26;;;;;;;11.38;2.42;;;;;;;;;;4972452;28;20961;-76
2022/06/19 13:34:51;;;;;;;9.02;1.90;;;;;;;;;;4970820;28;20036;-74
2022/06/19 13:37:23;;;;;;;13.25;2.20;;;;;;;;;;4974105;28;20065;-74
2022/06/19 13:39:49;;;;;;;11.60;2.30;;;;;;;;;;4972768;28;20049;-74
2022/06/19 13:42:26;;;;;;;8.00;2.00;;;;;;;;;;4973466;28;20256;-74
2022/06/19 13:45:00;;;;;;;8.10;1.77;;;;;;;;;;4987345;28;20836;-74
2022/06/19 13:47:30;;;;;;;9.98;1.90;;;;;;;;;;4970542;28;20038;-75
2022/06/19 13:50:18;;;;;;;10.73;2.00;;;;;;;;;;4971485;28;20053;-74
2022/06/19 13:52:50;;;;;;;13.32;2.65;;;;;;;;;;4966398;28;20030;-73
2022/06/19 13:55:15;;;;;;;;;;;;;;;;;;4972742;28;20561;-73
2022/06/19 13:57:43;;;;;;;9.07;1.90;;;;;;;;;;4970947;28;20033;-74
2022/06/19 14:00:22;;;;;;;10.85;2.72;;;;;;;;;;4975473;28;20200;-76
2022/06/19 14:02:59;;;;;;;10.13;1.83;;;;;;;;;;4952033;28;21158;-74
2022/06/19 14:05:27;;;;;;;12.25;2.53;;;;;;;;;;4984889;28;20033;-70
2022/06/19 14:07:55;;;;;;;14.50;2.30;;;;;;;;;;4971511;28;20820;-72
2022/06/19 14:10:36;;;;;;;12.15;2.30;;;;;;;;;;4974949;28;20030;-71
2022/06/19 14:13:07;;;;;;;11.93;2.35;;;;;;;;;;4959421;28;20035;-72
2022/06/19 14:15:32;;;;;;;13.00;2.47;;;;;;;;;;4950555;28;20052;-70
2022/06/19 14:18:22;;;;;;;10.63;2.43;;;;;;;;;;4951159;28;20065;-69
2022/06/19 14:21:06;;;;;;;14.63;2.55;;;;;;;;;;4984501;28;20327;-67
2022/06/19 14:23:49;;;;;;;11.15;2.50;;;;;;;;;;4971632;28;20045;-69
2022/06/19 14:26:25;;;;;;;13.13;2.92;;;;;;;;;;4972071;28;20822;-75
2022/06/19 14:29:03;;;;;;;11.63;2.40;;;;;;;;;;4987093;28;20038;-70
2022/06/19 14:31:28;;;;;;;13.55;2.65;;;;;;;;;;4972104;28;20560;-71
2022/06/19 14:33:55;;;;;;;14.65;2.70;;;;;;;;;;4972161;28;20038;-73
2022/06/19 14:36:22;;;;;;;11.32;2.20;;;;;;;;;;4966868;28;20579;-72
2022/06/19 14:38:52;;;;;;;9.88;2.17;;;;;;;;;;4986549;28;20053;-76
2022/06/19 14:41:39;;;;;;;10.70;2.10;;;;;;;;;;4976180;28;20037;-73
2022/06/19 14:44:14;;;;;;;10.88;2.28;;;;;;;;;;4971642;28;21128;-76
2022/06/19 14:47:04;;;;;;;12.32;2.15;;;;;;;;;;4972497;28;20128;-74
2022/06/19 14:49:48;;;;;;;8.15;1.85;;;;;;;;;;4945658;28;20608;-73
2022/06/19 14:52:33;;;;;;;13.80;2.30;;;;;;;;;;4965568;28;20585;-72
2022/06/19 14:55:15;;;;;;;10.95;2.40;;;;;;;;;;4969905;28;20037;-71
2022/06/19 14:57:46;;;;;;;13.65;2.65;;;;;;;;;;4970566;28;20053;-70